Havre, Havre City County Airport (KHVR)

NameHavre City County Airport
CityHavre
CountryUnited States
ICAOKHVR
IATAHVR
Altitude790 m
CoordinatesGoogle Map
Live Air TrafficLiveATC.net
METARKHVR 171953Z AUTO 25013KT 10SM CLR 20/M02 A3021 RMK AO2 SLP236 T02001022
2018-10-17 19:53:00 Wind: West-Southwest (250°) 6.69 m/s - Visibility: 16093.4 m - Temperature: 20 °C - Dew point: -2 °C - Humidity: 22.7% - Pressure: 1023.03 hPa

Sorry, no flights used the airport in this database.